Time;durP1;ratioP1;P1;durP2;ratioP2;P2;SDS_P1;SDS_P2;PMS_P1;PMS_P2;Temp;Humidity;BMP_temperature;BMP_pressure;BME280_temperature;BME280_humidity;BME280_pressure;Samples;Min_cycle;Max_cycle;Signal;HPM_P1;HPM_P2
2022/07/16 00:02:23;;;;;;;2.67;1.90;;;22.30;13.80;;;;;;5080123;28;20565;-81
2022/07/16 00:04:51;;;;;;;2.33;2.13;;;22.30;14.10;;;;;;5079847;28;20471;-81
2022/07/16 00:07:19;;;;;;;2.40;1.97;;;22.30;14.00;;;;;;5084042;28;20460;-81
2022/07/16 00:09:48;;;;;;;3.67;2.57;;;22.20;13.70;;;;;;5086037;28;20473;-81
2022/07/16 00:12:16;;;;;;;2.90;2.30;;;22.20;14.90;;;;;;5083493;28;20488;-82
2022/07/16 00:14:46;;;;;;;5.37;2.57;;;22.20;14.80;;;;;;5083216;28;20980;-81
2022/07/16 00:17:14;;;;;;;2.60;2.40;;;22.20;15.30;;;;;;5086083;28;20449;-81
2022/07/16 00:19:41;;;;;;;3.40;2.40;;;22.20;15.00;;;;;;5084800;28;20468;-82
2022/07/16 00:22:09;;;;;;;2.53;2.03;;;22.20;16.50;;;;;;5083291;28;20516;-82
2022/07/16 00:24:37;;;;;;;2.37;2.17;;;22.20;15.00;;;;;;5087054;28;20996;-82
2022/07/16 00:27:06;;;;;;;2.40;2.20;;;22.20;15.20;;;;;;5082673;28;20450;-81
2022/07/16 00:29:34;;;;;;;2.50;2.30;;;22.10;13.50;;;;;;5089448;28;20445;-81
2022/07/16 00:32:04;;;;;;;1.97;1.87;;;22.10;14.70;;;;;;5088231;28;20450;-80
2022/07/16 00:34:33;;;;;;;2.43;2.17;;;22.00;12.50;;;;;;5085974;28;20491;-80
2022/07/16 00:37:01;;;;;;;2.83;2.60;;;22.00;24.40;;;;;;5088444;28;20473;-81
2022/07/16 00:39:29;;;;;;;5.03;2.20;;;21.90;24.60;;;;;;5089203;28;20454;-81
2022/07/16 00:41:57;;;;;;;2.13;2.00;;;21.90;13.00;;;;;;5088796;28;20454;-81
2022/07/16 00:44:25;;;;;;;4.90;2.40;;;21.80;12.50;;;;;;5088270;28;21075;-81
2022/07/16 00:46:54;;;;;;;3.43;2.20;;;21.80;13.60;;;;;;5085870;28;20953;-81
2022/07/16 00:49:23;;;;;;;2.50;1.83;;;21.80;12.90;;;;;;5090263;28;20846;-80
2022/07/16 00:51:53;;;;;;;2.60;2.40;;;21.70;13.20;;;;;;5086617;28;20957;-80
2022/07/16 00:54:21;;;;;;;2.30;2.10;;;21.70;11.20;;;;;;5087463;28;20489;-82
2022/07/16 00:56:50;;;;;;;2.67;2.03;;;21.70;12.20;;;;;;5087780;28;20491;-80
2022/07/16 00:59:18;;;;;;;2.57;2.00;;;21.60;11.80;;;;;;5089138;28;20458;-80
2022/07/16 01:01:46;;;;;;;3.17;2.40;;;21.60;12.00;;;;;;5083895;28;20798;-80
2022/07/16 01:04:15;;;;;;;3.17;2.43;;;21.60;11.00;;;;;;5082465;28;20476;-80
2022/07/16 01:06:46;;;;;;;2.87;2.47;;;21.60;11.20;;;;;;5086341;28;20544;-80
2022/07/16 01:09:16;;;;;;;2.50;2.30;;;21.60;12.00;;;;;;5085121;28;20530;-80
2022/07/16 01:11:45;;;;;;;2.43;2.10;;;21.60;11.50;;;;;;5087027;28;20869;-81
2022/07/16 01:14:15;;;;;;;2.60;2.40;;;21.60;11.40;;;;;;5086977;28;21039;-80
2022/07/16 01:16:43;;;;;;;3.60;2.40;;;21.50;11.40;;;;;;5081265;28;21006;-82
2022/07/16 01:19:12;;;;;;;2.50;2.10;;;21.50;12.70;;;;;;5083146;28;20459;-81
2022/07/16 01:21:42;;;;;;;3.90;2.47;;;21.50;10.80;;;;;;5089755;28;21097;-81
2022/07/16 01:24:12;;;;;;;2.93;2.23;;;21.40;11.70;;;;;;5087769;28;20561;-80
2022/07/16 01:26:40;;;;;;;2.50;2.30;;;21.30;11.90;;;;;;5083322;28;20441;-80
2022/07/16 01:29:09;;;;;;;3.10;2.13;;;21.30;22.40;;;;;;5085311;28;20450;-80
2022/07/16 01:31:37;;;;;;;2.43;2.23;;;21.30;11.70;;;;;;5085944;28;20454;-79
2022/07/16 01:36:56;;;;;;;2.63;2.43;;;21.30;11.20;;;;;;5087750;28;20482;-81
2022/07/16 01:39:27;;;;;;;2.47;2.20;;;21.20;10.00;;;;;;5088655;28;20826;-81
2022/07/16 01:41:57;;;;;;;3.33;2.40;;;21.20;10.80;;;;;;5088051;28;20453;-80
2022/07/16 01:44:27;;;;;;;3.30;2.90;;;21.20;11.00;;;;;;5087810;28;20481;-80
2022/07/16 01:46:57;;;;;;;3.63;2.90;;;21.10;9.80;;;;;;5086018;28;20454;-80
2022/07/16 01:49:30;;;;;;;3.80;3.17;;;21.10;9.80;;;;;;5085306;28;20462;-79
2022/07/16 01:52:04;;;;;;;2.77;2.50;;;21.10;9.80;;;;;;5088825;28;20462;-80
2022/07/16 01:54:33;;;;;;;3.33;2.67;;;21.10;10.40;;;;;;5088516;28;20500;-80
2022/07/16 01:57:01;;;;;;;3.07;2.40;;;21.00;12.00;;;;;;5086307;28;21449;-80
2022/07/16 01:59:30;;;;;;;2.83;2.60;;;21.00;11.10;;;;;;5089336;28;20454;-80
2022/07/16 02:01:58;;;;;;;2.90;2.40;;;21.00;11.30;;;;;;5087993;28;20538;-80
2022/07/16 02:04:26;;;;;;;3.23;2.93;;;21.00;11.00;;;;;;5083208;28;20561;-80
2022/07/16 02:06:55;;;;;;;2.97;2.47;;;21.00;11.90;;;;;;5083670;28;20446;-78
2022/07/16 02:09:23;;;;;;;3.00;2.70;;;20.90;11.50;;;;;;5084786;28;21347;-80
2022/07/16 02:11:52;;;;;;;2.53;2.33;;;20.90;11.50;;;;;;5089331;28;20458;-80
2022/07/16 02:14:21;;;;;;;2.83;2.47;;;20.90;11.30;;;;;;5089842;28;20505;-80
2022/07/16 02:16:49;;;;;;;3.97;2.57;;;20.90;12.00;;;;;;5086299;28;20461;-80
2022/07/16 02:19:17;;;;;;;2.77;2.60;;;20.80;10.50;;;;;;5089629;28;20462;-80
2022/07/16 02:21:46;;;;;;;2.70;2.50;;;20.80;10.50;;;;;;5084276;28;20454;-81
2022/07/16 02:24:14;;;;;;;2.70;2.47;;;20.80;10.40;;;;;;5086742;28;20485;-80
2022/07/16 02:26:42;;;;;;;4.60;2.70;;;20.80;11.80;;;;;;5082887;28;20822;-81
2022/07/16 02:29:12;;;;;;;3.93;2.73;;;20.80;11.30;;;;;;5088104;28;20508;-80
2022/07/16 02:31:40;;;;;;;2.50;2.30;;;20.70;10.90;;;;;;5084447;28;20458;-82
2022/07/16 02:34:08;;;;;;;3.30;3.03;;;20.70;10.60;;;;;;5084925;28;20551;-80
2022/07/16 02:36:37;;;;;;;2.40;2.30;;;20.70;22.60;;;;;;5085126;28;20477;-81
2022/07/16 02:39:06;;;;;;;2.90;2.40;;;20.70;9.80;;;;;;5081516;28;20495;-81
2022/07/16 02:41:34;;;;;;;2.43;2.33;;;20.70;10.50;;;;;;5083210;28;20446;-81
2022/07/16 02:44:02;;;;;;;2.50;2.30;;;20.60;10.60;;;;;;5086484;28;20548;-81
2022/07/16 02:46:32;;;;;;;3.13;2.80;;;20.60;11.00;;;;;;5082985;28;20590;-81
2022/07/16 02:49:00;;;;;;;3.07;2.63;;;20.60;10.80;;;;;;5084286;28;20464;-80
2022/07/16 02:51:28;;;;;;;2.60;2.40;;;20.60;11.10;;;;;;5083539;28;20478;-81
2022/07/16 02:53:56;;;;;;;3.10;2.70;;;20.60;10.50;;;;;;5087493;28;21047;-80
2022/07/16 02:56:25;;;;;;;3.27;3.03;;;20.60;11.20;;;;;;5088161;28;20469;-80
2022/07/16 02:58:53;;;;;;;3.40;3.03;;;20.50;10.40;;;;;;5080491;28;20454;-80
2022/07/16 03:01:21;;;;;;;3.07;2.57;;;20.60;21.80;;;;;;5093735;28;20458;-80
2022/07/16 03:03:51;;;;;;;5.63;3.13;;;20.50;10.40;;;;;;5082424;28;20475;-80
2022/07/16 03:06:20;;;;;;;2.70;2.50;;;20.50;11.40;;;;;;5085999;28;20449;-80
2022/07/16 03:08:48;;;;;;;2.67;2.33;;;20.50;10.10;;;;;;5081982;28;20466;-79
2022/07/16 03:11:17;;;;;;;2.93;2.70;;;20.50;10.10;;;;;;5082480;28;20464;-80
2022/07/16 03:13:46;;;;;;;3.00;2.53;;;20.50;8.90;;;;;;5086242;28;20476;-80
2022/07/16 03:16:14;;;;;;;2.70;2.50;;;20.40;10.50;;;;;;5087503;28;20473;-81
2022/07/16 03:18:42;;;;;;;3.30;2.97;;;20.40;9.70;;;;;;5082809;28;20841;-80
2022/07/16 03:21:12;;;;;;;4.03;2.60;;;20.40;10.20;;;;;;5082339;28;20540;-79
2022/07/16 03:23:40;;;;;;;3.57;3.27;;;20.40;9.60;;;;;;5083073;28;20988;-80
2022/07/16 03:26:08;;;;;;;5.53;2.70;;;20.40;10.10;;;;;;5072304;28;20447;-80
2022/07/16 03:28:37;;;;;;;6.63;3.70;;;20.30;9.70;;;;;;5086016;28;20510;-80
2022/07/16 03:31:05;;;;;;;3.13;2.70;;;20.30;10.20;;;;;;5088820;28;20453;-80
2022/07/16 03:33:34;;;;;;;2.70;2.50;;;20.30;10.20;;;;;;5075974;28;20473;-79
2022/07/16 03:36:02;;;;;;;3.00;2.80;;;20.20;8.90;;;;;;5083575;28;20465;-80
2022/07/16 03:41:17;;;;;;;4.97;3.17;;;20.20;9.60;;;;;;5085215;28;20456;-81
2022/07/16 03:43:46;;;;;;;2.90;2.60;;;20.20;9.10;;;;;;5086589;28;20569;-81
2022/07/16 03:46:14;;;;;;;3.60;2.67;;;20.20;10.10;;;;;;5079007;28;20506;-81
2022/07/16 03:48:43;;;;;;;2.97;2.70;;;20.10;10.50;;;;;;5074228;28;20860;-81
2022/07/16 03:51:12;;;;;;;2.57;2.37;;;20.10;8.80;;;;;;5080163;28;20508;-81
2022/07/16 03:53:41;;;;;;;2.90;2.60;;;20.10;8.50;;;;;;5079590;28;20474;-79
2022/07/16 03:56:10;;;;;;;3.23;2.93;;;20.10;10.50;;;;;;5085378;28;20477;-80
2022/07/16 03:58:38;;;;;;;2.97;2.60;;;20.10;10.20;;;;;;5084983;28;20476;-80
2022/07/16 04:01:07;;;;;;;4.50;3.43;;;20.10;9.10;;;;;;5076666;28;20447;-80
2022/07/16 04:03:37;;;;;;;2.80;2.60;;;20.10;9.20;;;;;;5089415;28;20731;-80
2022/07/16 04:06:06;;;;;;;4.43;2.77;;;20.10;9.30;;;;;;5079387;28;21009;-80
2022/07/16 04:08:35;;;;;;;5.73;2.67;;;20.10;10.90;;;;;;5084502;28;20569;-80
2022/07/16 04:11:05;;;;;;;5.53;2.70;;;20.10;10.50;;;;;;5085947;28;20468;-80
2022/07/16 04:13:33;;;;;;;2.50;2.30;;;20.10;9.60;;;;;;5089569;28;20468;-79
2022/07/16 04:16:01;;;;;;;3.10;2.80;;;20.10;10.10;;;;;;5088447;28;20951;-79
2022/07/16 04:18:29;;;;;;;3.13;2.93;;;20.10;10.60;;;;;;5083286;28;20478;-79
2022/07/16 04:20:58;;;;;;;4.30;2.80;;;20.10;11.20;;;;;;5083683;28;20445;-80
2022/07/16 04:23:26;;;;;;;2.80;2.60;;;20.10;11.50;;;;;;5088944;28;20955;-79
2022/07/16 04:25:54;;;;;;;2.93;2.63;;;20.00;10.60;;;;;;5085908;28;20544;-80
2022/07/16 04:28:24;;;;;;;4.75;3.38;;;20.00;11.50;;;;;;5086919;28;20527;-79
2022/07/16 04:30:52;;;;;;;3.20;3.00;;;20.00;11.30;;;;;;5085199;28;20200;-80
2022/07/16 04:33:21;;;;;;;3.30;3.00;;;20.00;10.70;;;;;;5081476;28;20538;-79
2022/07/16 04:35:50;;;;;;;2.60;2.40;;;20.00;9.90;;;;;;5088678;28;20448;-79
2022/07/16 04:38:19;;;;;;;3.60;2.80;;;20.00;11.00;;;;;;5088771;28;20498;-79
2022/07/16 04:40:47;;;;;;;4.20;2.50;;;20.00;9.50;;;;;;5086483;28;20529;-79
2022/07/16 04:43:15;;;;;;;2.83;2.50;;;20.00;10.90;;;;;;5085840;28;20449;-80
2022/07/16 04:45:45;;;;;;;5.00;3.03;;;20.00;10.70;;;;;;5087075;28;20456;-79
2022/07/16 04:48:13;;;;;;;4.40;3.33;;;20.00;10.60;;;;;;5084807;28;20537;-80
2022/07/16 04:50:41;;;;;;;2.83;2.53;;;20.00;11.10;;;;;;5086549;28;20449;-79
2022/07/16 04:53:09;;;;;;;4.63;3.20;;;20.00;11.20;;;;;;5087030;28;20443;-80
2022/07/16 04:55:38;;;;;;;3.63;3.30;;;20.00;11.20;;;;;;5088595;28;20441;-80
2022/07/16 04:58:06;;;;;;;3.63;3.33;;;20.00;12.70;;;;;;5087319;28;20474;-80
2022/07/16 05:00:34;;;;;;;3.77;2.30;;;20.10;11.60;;;;;;5081678;28;20481;-79
2022/07/16 05:03:04;;;;;;;2.60;2.40;;;20.10;11.30;;;;;;5088332;28;20519;-79
2022/07/16 05:05:34;;;;;;;4.10;2.83;;;20.10;22.00;;;;;;5085943;28;20465;-80
2022/07/16 05:08:04;;;;;;;2.93;2.73;;;20.10;10.20;;;;;;5083495;28;20491;-80
2022/07/16 05:10:33;;;;;;;4.10;2.73;;;20.10;10.70;;;;;;5088034;28;20472;-80
2022/07/16 05:13:02;;;;;;;4.00;3.60;;;20.10;12.30;;;;;;5088388;28;20461;-80
2022/07/16 05:15:31;;;;;;;3.10;2.57;;;20.10;12.40;;;;;;5084435;28;20481;-80
2022/07/16 05:17:59;;;;;;;3.33;3.13;;;20.10;12.90;;;;;;5081986;28;20469;-80
2022/07/16 05:20:29;;;;;;;5.70;3.53;;;20.10;13.00;;;;;;5088765;28;20464;-80
2022/07/16 05:22:58;;;;;;;3.80;3.50;;;20.10;11.30;;;;;;5086784;28;20454;-80
2022/07/16 05:25:26;;;;;;;2.50;2.27;;;20.10;11.40;;;;;;5086877;28;20476;-80
2022/07/16 05:27:54;;;;;;;4.03;2.93;;;20.10;12.40;;;;;;5086809;28;20937;-79
2022/07/16 05:30:23;;;;;;;4.17;3.10;;;20.10;13.10;;;;;;5078755;28;20447;-80
2022/07/16 05:32:51;;;;;;;3.20;2.60;;;20.20;11.70;;;;;;5083944;28;20465;-80
2022/07/16 05:35:19;;;;;;;3.03;2.83;;;20.10;12.10;;;;;;5086234;28;20568;-80
2022/07/16 05:37:49;;;;;;;3.00;2.77;;;20.20;13.00;;;;;;5087353;28;20794;-80
2022/07/16 05:40:17;;;;;;;5.67;2.27;;;20.20;13.70;;;;;;5088473;28;20488;-80
2022/07/16 05:42:45;;;;;;;4.23;2.53;;;20.20;13.90;;;;;;5086087;28;20450;-80
2022/07/16 05:45:17;;;;;;;6.80;3.50;;;20.30;14.00;;;;;;5086030;28;20477;-80
2022/07/16 05:47:45;;;;;;;2.60;2.30;;;20.80;13.70;;;;;;5079576;28;20507;-80
2022/07/16 05:50:14;;;;;;;2.70;2.50;;;20.40;14.10;;;;;;5086986;28;20454;-80
2022/07/16 05:52:42;;;;;;;3.07;2.40;;;20.50;13.30;;;;;;5087411;28;20452;-81
2022/07/16 05:55:12;;;;;;;2.50;2.30;;;20.50;14.40;;;;;;5082814;28;21046;-79
2022/07/16 05:57:40;;;;;;;2.43;2.23;;;20.60;13.20;;;;;;5086358;28;20969;-81
2022/07/16 06:00:11;;;;;;;2.43;2.13;;;20.60;13.90;;;;;;5084710;28;20466;-81
2022/07/16 06:02:40;;;;;;;4.00;2.30;;;20.60;12.20;;;;;;5082913;28;20973;-81
2022/07/16 06:05:09;;;;;;;2.47;1.90;;;20.70;13.50;;;;;;5082488;28;20604;-79
2022/07/16 06:07:38;;;;;;;2.50;2.30;;;20.70;13.40;;;;;;5085946;28;20445;-80
2022/07/16 06:10:07;;;;;;;2.40;2.20;;;20.80;14.20;;;;;;5078958;28;20465;-80
2022/07/16 06:12:37;;;;;;;2.53;2.10;;;20.80;14.40;;;;;;5086376;28;20457;-80
2022/07/16 06:15:06;;;;;;;2.80;2.17;;;20.90;15.40;;;;;;5081711;28;20473;-81
2022/07/16 06:17:35;;;;;;;3.50;2.40;;;20.90;13.90;;;;;;5087353;28;20456;-81
2022/07/16 06:20:04;;;;;;;2.65;2.30;;;20.90;15.80;;;;;;5083772;28;20954;-78
2022/07/16 06:22:32;;;;;;;3.37;3.07;;;21.00;16.10;;;;;;5087474;28;20199;-80
2022/07/16 06:25:01;;;;;;;3.17;2.03;;;21.10;17.80;;;;;;5081865;28;20470;-78
2022/07/16 06:27:29;;;;;;;3.60;1.77;;;21.20;17.20;;;;;;5082289;28;20461;-77
2022/07/16 06:30:03;;;;;;;3.90;2.80;;;21.20;18.00;;;;;;5087533;28;20507;-77
2022/07/16 06:32:32;;;;;;;2.30;2.13;;;21.20;15.90;;;;;;5075834;28;20460;-77
2022/07/16 06:35:00;;;;;;;2.30;2.10;;;21.20;16.50;;;;;;5087468;28;20473;-81
2022/07/16 06:37:28;;;;;;;2.03;1.80;;;21.20;18.40;;;;;;5080255;28;20919;-82
2022/07/16 06:39:56;;;;;;;1.90;1.70;;;21.30;19.00;;;;;;5085108;28;20849;-80
2022/07/16 06:42:25;;;;;;;2.00;1.80;;;21.30;18.70;;;;;;5077073;28;20846;-81
2022/07/16 06:44:53;;;;;;;1.73;1.60;;;21.30;18.40;;;;;;5080106;28;20467;-80
2022/07/16 06:47:22;;;;;;;1.33;1.23;;;21.40;19.00;;;;;;5083371;28;20458;-81
2022/07/16 06:49:51;;;;;;;1.90;1.73;;;21.50;18.00;;;;;;5084620;28;20434;-81
2022/07/16 06:52:19;;;;;;;1.83;1.30;;;21.40;17.90;;;;;;5085585;28;20537;-81
2022/07/16 06:54:47;;;;;;;2.73;1.63;;;21.50;17.30;;;;;;5078711;28;20988;-81
2022/07/16 06:57:16;;;;;;;2.47;1.47;;;21.60;17.80;;;;;;5087375;28;20453;-81
2022/07/16 06:59:44;;;;;;;2.07;1.67;;;21.60;19.00;;;;;;5088637;28;20454;-81
2022/07/16 07:02:13;;;;;;;1.90;1.80;;;21.80;21.10;;;;;;5083309;28;20495;-81
2022/07/16 07:04:43;;;;;;;2.10;1.50;;;22.00;22.90;;;;;;5085413;28;20565;-82
2022/07/16 07:07:11;;;;;;;1.50;1.30;;;22.10;22.80;;;;;;5084537;28;20507;-81
2022/07/16 07:09:40;;;;;;;5.13;1.83;;;22.20;23.00;;;;;;5080604;28;20456;-79
2022/07/16 07:12:08;;;;;;;3.00;1.50;;;22.30;23.40;;;;;;5083680;28;20476;-82
2022/07/16 07:14:36;;;;;;;1.73;1.20;;;22.40;23.90;;;;;;5087272;28;20534;-81
2022/07/16 07:17:04;;;;;;;2.50;1.80;;;22.50;25.80;;;;;;5081441;28;20453;-82
2022/07/16 07:19:33;;;;;;;2.60;1.53;;;22.70;25.20;;;;;;5084401;28;20488;-82
2022/07/16 07:22:02;;;;;;;2.60;1.40;;;22.80;25.10;;;;;;5077004;28;20472;-80
2022/07/16 07:24:31;;;;;;;4.40;1.97;;;22.80;24.90;;;;;;5085057;28;20473;-79
2022/07/16 07:27:16;;;;;;;1.90;1.50;;;22.90;25.00;;;;;;5083591;28;20462;-79
2022/07/16 07:29:44;;;;;;;1.60;1.40;;;22.90;24.50;;;;;;5086575;28;20457;-80
2022/07/16 07:32:13;;;;;;;2.47;1.50;;;23.00;25.60;;;;;;5080567;28;20466;-78
2022/07/16 07:34:41;;;;;;;1.33;1.20;;;23.00;24.80;;;;;;5078982;28;21047;-79
2022/07/16 07:37:11;;;;;;;2.03;1.50;;;23.00;25.30;;;;;;5086673;28;20525;-79
2022/07/16 07:39:39;;;;;;;1.53;1.17;;;23.00;26.40;;;;;;5085897;28;20477;-80
2022/07/16 07:42:07;;;;;;;1.60;1.50;;;23.10;25.70;;;;;;5086746;28;20450;-80
2022/07/16 07:44:35;;;;;;;1.00;1.00;;;23.10;24.70;;;;;;5083054;28;20678;-80
2022/07/16 07:47:04;;;;;;;1.30;1.20;;;23.20;25.10;;;;;;5084986;28;20469;-79
2022/07/16 07:49:33;;;;;;;2.00;1.40;;;23.20;26.00;;;;;;5082876;28;20459;-80
2022/07/16 07:52:08;;;;;;;3.47;1.20;;;23.20;26.50;;;;;;5086231;28;20988;-80
2022/07/16 07:54:37;;;;;;;1.40;1.30;;;23.30;25.70;;;;;;5083410;28;20833;-81
2022/07/16 07:57:05;;;;;;;1.30;1.20;;;23.30;27.30;;;;;;5080656;28;20438;-83
2022/07/16 07:59:33;;;;;;;1.00;1.00;;;23.40;27.90;;;;;;5090863;28;20461;-82
2022/07/16 08:02:02;;;;;;;1.20;1.10;;;23.40;27.90;;;;;;5080749;28;20450;-82
2022/07/16 08:04:30;;;;;;;2.37;1.00;;;23.40;27.60;;;;;;5089957;28;20461;-82
2022/07/16 08:06:58;;;;;;;1.67;1.40;;;23.50;28.30;;;;;;5085607;28;20454;-83
2022/07/16 08:09:26;;;;;;;1.77;1.67;;;23.50;28.20;;;;;;5082964;28;20776;-82
2022/07/16 08:11:56;;;;;;;1.20;1.10;;;23.50;28.30;;;;;;5083133;28;21012;-79
2022/07/16 08:14:25;;;;;;;1.20;1.10;;;23.50;26.60;;;;;;5091911;28;20553;-83
2022/07/16 08:16:56;;;;;;;1.30;1.20;;;23.60;29.50;;;;;;5090977;28;20442;-80
2022/07/16 08:19:25;;;;;;;1.10;1.00;;;23.70;26.50;;;;;;5091375;28;20466;-83
2022/07/16 08:21:53;;;;;;;1.50;1.30;;;23.70;27.60;;;;;;5090403;28;20448;-82
2022/07/16 08:27:09;;;;;;;1.93;1.83;;;23.80;27.80;;;;;;5088605;28;20941;-80
2022/07/16 08:29:37;;;;;;;1.73;1.40;;;23.80;28.80;;;;;;5086502;28;20449;-83
2022/07/16 08:32:07;;;;;;;2.50;1.10;;;23.90;29.00;;;;;;5091798;28;20449;-82
2022/07/16 08:34:35;;;;;;;1.60;1.27;;;24.00;28.90;;;;;;5074462;28;20473;-82
2022/07/16 08:37:07;;;;;;;1.50;1.40;;;24.00;29.70;;;;;;5090143;28;20445;-82
2022/07/16 08:39:38;;;;;;;1.40;1.10;;;24.00;27.40;;;;;;5090625;28;20820;-83
2022/07/16 08:42:10;;;;;;;1.30;1.20;;;24.00;27.50;;;;;;5082205;28;20457;-82
2022/07/16 08:44:40;;;;;;;1.20;1.10;;;24.10;29.40;;;;;;5077566;28;20476;-82
2022/07/16 08:47:13;;;;;;;1.13;1.10;;;24.10;30.40;;;;;;5078697;28;20440;-82
2022/07/16 08:49:44;;;;;;;0.90;0.90;;;24.20;31.30;;;;;;5093062;28;20519;-83
2022/07/16 08:52:13;;;;;;;1.73;1.53;;;24.20;30.90;;;;;;5087407;28;20774;-82
2022/07/16 08:54:43;;;;;;;1.90;1.13;;;24.20;30.00;;;;;;5089353;28;20462;-83
2022/07/16 08:57:21;;;;;;;1.30;1.20;;;24.20;29.90;;;;;;5094327;28;20454;-83
2022/07/16 08:59:50;;;;;;;1.83;1.20;;;24.20;29.60;;;;;;5094324;28;20465;-82
2022/07/16 09:02:19;;;;;;;2.20;1.40;;;24.20;30.30;;;;;;5094690;28;20459;-82
2022/07/16 09:04:47;;;;;;;2.30;1.20;;;24.30;32.40;;;;;;5086118;28;20501;-82
2022/07/16 09:07:16;;;;;;;1.43;1.33;;;24.30;32.80;;;;;;5094388;28;20446;-83
2022/07/16 09:09:45;;;;;;;2.07;1.30;;;24.50;31.20;;;;;;5094902;28;20442;-83
2022/07/16 09:12:35;;;;;;;1.67;1.33;;;24.40;33.30;;;;;;5094571;28;20540;-83
2022/07/16 09:15:23;;;;;;;1.60;1.50;;;24.50;33.80;;;;;;5094260;28;20470;-82
2022/07/16 09:18:07;;;;;;;1.67;1.30;;;24.60;34.00;;;;;;5090568;28;20455;-82
2022/07/16 09:20:36;;;;;;;2.77;1.70;;;24.60;34.80;;;;;;5078726;28;20488;-83
2022/07/16 09:23:04;;;;;;;1.90;1.60;;;24.70;34.60;;;;;;5089839;28;20450;-83
2022/07/16 09:25:32;;;;;;;1.57;1.23;;;24.70;36.30;;;;;;5087024;28;20478;-83
2022/07/16 09:28:02;;;;;;;1.67;1.57;;;24.70;36.00;;;;;;5088922;28;20957;-82
2022/07/16 09:30:30;;;;;;;2.00;1.20;;;24.70;36.70;;;;;;5085695;28;20442;-81
2022/07/16 09:33:13;;;;;;;4.53;1.50;;;24.80;37.70;;;;;;5087768;28;20465;-81
2022/07/16 09:35:41;;;;;;;1.27;1.20;;;24.80;33.60;;;;;;5084513;28;20455;-83
2022/07/16 09:38:10;;;;;;;1.27;1.17;;;24.80;34.70;;;;;;5080392;28;22280;-82
2022/07/16 09:40:42;;;;;;;2.67;1.10;;;24.80;34.00;;;;;;5080071;28;20513;-82
2022/07/16 09:43:23;;;;;;;1.57;1.30;;;24.80;34.20;;;;;;5082792;28;20533;-81
2022/07/16 09:45:58;;;;;;;1.90;1.20;;;24.90;35.60;;;;;;5093713;28;20487;-82
2022/07/16 09:48:28;;;;;;;1.30;1.20;;;25.00;35.30;;;;;;5089758;28;20457;-81
2022/07/16 09:51:13;;;;;;;3.30;1.10;;;25.00;33.60;;;;;;5092701;28;20492;-83
2022/07/16 09:53:43;;;;;;;1.03;0.90;;;24.90;33.80;;;;;;5093855;28;21001;-83
2022/07/16 09:56:14;;;;;;;1.63;1.20;;;25.00;36.90;;;;;;5094531;28;20516;-83
2022/07/16 09:58:48;;;;;;;1.13;0.97;;;25.20;34.80;;;;;;5093480;28;20473;-83
2022/07/16 10:01:17;;;;;;;1.00;1.00;;;25.10;34.80;;;;;;5093971;28;20547;-82
2022/07/16 10:03:46;;;;;;;1.33;1.17;;;25.10;33.90;;;;;;5091317;28;20501;-83
2022/07/16 10:06:15;;;;;;;3.20;1.43;;;25.10;32.60;;;;;;5091461;28;20470;-82
2022/07/16 10:08:44;;;;;;;1.30;1.10;;;25.00;31.30;;;;;;5093969;28;20473;-83
2022/07/16 10:11:13;;;;;;;1.20;0.97;;;25.00;47.40;;;;;;5093981;28;20452;-83
2022/07/16 10:13:44;;;;;;;1.57;1.17;;;25.10;33.00;;;;;;5093510;28;20465;-83
2022/07/16 10:16:14;;;;;;;1.30;1.00;;;25.20;33.90;;;;;;5092267;28;20442;-83
2022/07/16 10:18:44;;;;;;;1.67;1.00;;;25.20;35.70;;;;;;5086912;28;20528;-82
2022/07/16 10:21:16;;;;;;;1.77;1.10;;;25.20;34.40;;;;;;5080463;28;20590;-82
2022/07/16 10:23:47;;;;;;;1.00;1.00;;;25.30;36.00;;;;;;5089922;28;20518;-82
2022/07/16 10:26:18;;;;;;;1.17;0.97;;;25.30;33.50;;;;;;5092023;28;20466;-82
2022/07/16 10:28:48;;;;;;;1.13;0.87;;;25.40;34.90;;;;;;5093884;28;20426;-84
2022/07/16 10:31:36;;;;;;;1.30;1.20;;;25.40;34.50;;;;;;5092310;28;20446;-83
2022/07/16 10:34:41;;;;;;;1.03;0.93;;;25.40;30.80;;;;;;5083732;28;20478;-82
2022/07/16 10:37:25;;;;;;;1.27;0.90;;;25.40;32.00;;;;;;5079369;28;20456;-82
2022/07/16 10:40:05;;;;;;;1.00;0.80;;;25.40;33.70;;;;;;5091477;28;20457;-81
2022/07/16 10:42:35;;;;;;;0.90;0.90;;;25.50;35.90;;;;;;5079412;28;20828;-82
2022/07/16 10:45:04;;;;;;;1.60;1.10;;;25.50;36.30;;;;;;5086443;28;20565;-82
2022/07/16 10:47:50;;;;;;;1.00;0.90;;;25.50;33.80;;;;;;5093954;28;20476;-82
2022/07/16 10:50:22;;;;;;;1.17;1.07;;;25.50;33.20;;;;;;5092973;28;20533;-82
2022/07/16 10:52:52;;;;;;;1.97;1.20;;;25.60;33.50;;;;;;5093199;28;20872;-81
2022/07/16 10:55:40;;;;;;;1.10;1.00;;;25.70;34.40;;;;;;5092695;28;20457;-83
2022/07/16 10:58:08;;;;;;;1.40;1.10;;;25.70;33.80;;;;;;5093244;28;20461;-83
2022/07/16 11:00:37;;;;;;;2.03;1.43;;;25.70;36.20;;;;;;5086996;28;20467;-82
2022/07/16 11:03:06;;;;;;;1.30;1.20;;;25.80;36.90;;;;;;5076088;28;20503;-82
2022/07/16 11:05:46;;;;;;;1.13;1.03;;;25.90;37.80;;;;;;5080815;28;20461;-82
2022/07/16 11:08:15;;;;;;;1.10;0.97;;;25.90;39.70;;;;;;5097038;28;20441;-80
2022/07/16 11:10:44;;;;;;;1.30;1.10;;;25.90;36.30;;;;;;5097008;28;20471;-84
2022/07/16 11:13:15;;;;;;;0.70;0.70;;;25.90;37.90;;;;;;5088086;28;20446;-82
2022/07/16 11:15:43;;;;;;;1.83;1.00;;;25.90;34.70;;;;;;5080134;28;20438;-82
2022/07/16 11:18:19;;;;;;;0.80;0.80;;;26.00;37.90;;;;;;5084330;28;20458;-81
2022/07/16 11:20:48;;;;;;;0.90;0.90;;;26.00;35.90;;;;;;5093063;28;20474;-82
2022/07/16 11:23:18;;;;;;;1.80;1.07;;;26.00;34.60;;;;;;5090307;28;20458;-80
2022/07/16 11:26:01;;;;;;;1.00;0.90;;;26.00;37.50;;;;;;5090223;28;20445;-81
2022/07/16 11:28:29;;;;;;;1.43;1.00;;;26.00;35.10;;;;;;5092780;28;20499;-82
2022/07/16 11:31:07;;;;;;;0.93;0.93;;;26.00;36.80;;;;;;5091505;28;20450;-81
2022/07/16 11:34:03;;;;;;;1.33;1.20;;;26.00;34.10;;;;;;5085388;28;20473;-82
2022/07/16 11:36:34;;;;;;;0.90;0.90;;;26.10;34.70;;;;;;5093611;28;20524;-82
2022/07/16 11:39:04;;;;;;;1.80;1.10;;;26.10;36.60;;;;;;5093094;28;20457;-82
2022/07/16 11:41:33;;;;;;;0.90;0.80;;;26.20;34.80;;;;;;5093052;28;20883;-81
2022/07/16 11:44:07;;;;;;;1.53;1.00;;;26.10;35.50;;;;;;5092519;28;20492;-81
2022/07/16 11:46:43;;;;;;;1.97;1.10;;;26.20;35.60;;;;;;5092419;28;20503;-82
2022/07/16 11:49:21;;;;;;;1.00;0.97;;;26.30;37.10;;;;;;5092881;28;20445;-81
2022/07/16 11:51:49;;;;;;;1.10;1.00;;;26.30;39.20;;;;;;5092871;28;20507;-82
2022/07/16 11:54:17;;;;;;;0.80;0.80;;;26.40;40.80;;;;;;5087247;28;20466;-81
2022/07/16 11:56:46;;;;;;;1.63;1.03;;;26.40;40.10;;;;;;5089627;28;20464;-82
2022/07/16 11:59:20;;;;;;;1.00;0.90;;;26.40;41.70;;;;;;5091844;28;20450;-83
2022/07/16 12:01:58;;;;;;;0.90;0.90;;;26.50;39.80;;;;;;5088012;28;20468;-81
2022/07/16 12:04:39;;;;;;;1.00;1.00;;;26.50;38.70;;;;;;5092082;28;20481;-82
2022/07/16 12:07:09;;;;;;;1.17;0.90;;;26.50;39.00;;;;;;5078399;28;20457;-81
2022/07/16 12:09:39;;;;;;;1.10;1.00;;;26.40;38.50;;;;;;5082862;28;20442;-80
2022/07/16 12:12:12;;;;;;;0.80;0.80;;;26.50;38.50;;;;;;5089274;28;20442;-82
2022/07/16 12:14:50;;;;;;;1.70;1.00;;;26.60;39.20;;;;;;5092224;28;20465;-80
2022/07/16 12:17:41;;;;;;;1.37;0.97;;;26.70;37.80;;;;;;5080936;28;20469;-80
2022/07/16 12:20:20;;;;;;;0.83;0.83;;;26.70;39.10;;;;;;5092614;28;20929;-82
2022/07/16 12:23:00;;;;;;;1.40;0.90;;;26.60;37.60;;;;;;5086688;28;20464;-82
2022/07/16 12:25:37;;;;;;;0.80;0.80;;;26.60;39.10;;;;;;5094012;28;20473;-80
2022/07/16 12:28:08;;;;;;;0.80;0.70;;;26.70;37.70;;;;;;5096230;28;20487;-82
2022/07/16 12:30:39;;;;;;;2.80;1.00;;;26.70;39.20;;;;;;5096623;28;20976;-81
2022/07/16 12:33:09;;;;;;;1.00;0.90;;;26.70;38.00;;;;;;5099045;28;20495;-81
2022/07/16 12:35:44;;;;;;;1.37;0.80;;;26.70;38.00;;;;;;5101521;28;20484;-82
2022/07/16 12:38:39;;;;;;;0.90;0.90;;;26.70;38.40;;;;;;5086735;28;20464;-82
2022/07/16 12:41:09;;;;;;;1.00;0.80;;;26.80;36.90;;;;;;5092159;28;20445;-82
2022/07/16 12:43:39;;;;;;;1.63;0.90;;;26.80;38.10;;;;;;5089621;28;20823;-80
2022/07/16 12:46:08;;;;;;;1.10;0.80;;;26.80;37.50;;;;;;5087159;28;20445;-81
2022/07/16 12:48:46;;;;;;;0.97;0.83;;;26.90;37.90;;;;;;5086945;28;20443;-83
2022/07/16 12:51:19;;;;;;;4.00;0.90;;;26.90;38.50;;;;;;5091613;28;20516;-83
2022/07/16 12:53:48;;;;;;;1.10;0.80;;;26.90;38.10;;;;;;5091551;28;21030;-83
2022/07/16 12:59:04;;;;;;;0.97;0.90;;;27.00;39.90;;;;;;5089442;28;20974;-82
2022/07/16 13:01:34;;;;;;;1.27;1.17;;;27.00;40.10;;;;;;5089981;28;20551;-81
2022/07/16 13:04:03;;;;;;;0.70;0.70;;;27.00;40.70;;;;;;5084950;28;21013;-83
2022/07/16 13:06:34;;;;;;;0.70;0.70;;;27.00;40.90;;;;;;5082135;28;20447;-82
2022/07/16 13:09:04;;;;;;;0.70;0.70;;;27.00;39.70;;;;;;5080995;28;20445;-80
2022/07/16 13:11:33;;;;;;;0.70;0.70;;;27.00;38.80;;;;;;5086008;28;20445;-82
2022/07/16 13:14:01;;;;;;;1.13;0.80;;;27.10;38.90;;;;;;5087123;28;20461;-81
2022/07/16 13:16:30;;;;;;;0.97;0.87;;;27.00;39.90;;;;;;5090688;28;20446;-86